sensor_id;sensor_type;location;lat;lon;timestamp;pressure;altitude;pressure_sealevel;temperature;humidity
69982;BME280;57319;56.274;43.980;2023-05-23T00:01:01;100468.94;;;15.72;46.18
69982;BME280;57319;56.274;43.980;2023-05-23T00:03:27;100481.09;;;15.72;46.27
69982;BME280;57319;56.274;43.980;2023-05-23T00:05:55;100473.34;;;15.70;46.60
69982;BME280;57319;56.274;43.980;2023-05-23T00:08:21;100481.13;;;15.69;46.17
69982;BME280;57319;56.274;43.980;2023-05-23T00:10:48;100473.41;;;15.66;46.29
69982;BME280;57319;56.274;43.980;2023-05-23T00:13:14;100478.75;;;15.59;46.51
69982;BME280;57319;56.274;43.980;2023-05-23T00:15:41;100475.34;;;15.57;46.63
69982;BME280;57319;56.274;43.980;2023-05-23T00:18:08;100482.28;;;15.57;46.66
69982;BME280;57319;56.274;43.980;2023-05-23T00:20:36;100474.50;;;15.57;46.32
69982;BME280;57319;56.274;43.980;2023-05-23T00:23:09;100472.72;;;15.57;46.17
69982;BME280;57319;56.274;43.980;2023-05-23T00:25:36;100474.53;;;15.55;46.46
69982;BME280;57319;56.274;43.980;2023-05-23T00:28:03;100479.69;;;15.57;46.58
69982;BME280;57319;56.274;43.980;2023-05-23T00:30:31;100484.91;;;15.55;46.42
69982;BME280;57319;56.274;43.980;2023-05-23T00:32:59;100476.25;;;15.55;46.79
69982;BME280;57319;56.274;43.980;2023-05-23T00:35:26;100486.72;;;15.50;46.61
69982;BME280;57319;56.274;43.980;2023-05-23T00:37:52;100485.94;;;15.47;46.75
69982;BME280;57319;56.274;43.980;2023-05-23T00:40:18;100480.78;;;15.45;47.09
69982;BME280;57319;56.274;43.980;2023-05-23T00:42:47;100480.03;;;15.40;46.89
69982;BME280;57319;56.274;43.980;2023-05-23T00:45:13;100486.13;;;15.39;47.04
69982;BME280;57319;56.274;43.980;2023-05-23T00:47:40;100476.66;;;15.36;47.01
69982;BME280;57319;56.274;43.980;2023-05-23T00:50:08;100479.31;;;15.33;46.96
69982;BME280;57319;56.274;43.980;2023-05-23T00:52:36;100475.88;;;15.31;47.25
69982;BME280;57319;56.274;43.980;2023-05-23T00:55:03;100477.72;;;15.26;47.34
69982;BME280;57319;56.274;43.980;2023-05-23T00:57:29;100478.66;;;15.22;47.40
69982;BME280;57319;56.274;43.980;2023-05-23T00:59:55;100475.19;;;15.23;47.40
69982;BME280;57319;56.274;43.980;2023-05-23T01:02:21;100476.97;;;15.21;47.53
69982;BME280;57319;56.274;43.980;2023-05-23T01:04:48;100476.22;;;15.16;47.78
69982;BME280;57319;56.274;43.980;2023-05-23T01:07:22;100473.63;;;15.16;47.71
69982;BME280;57319;56.274;43.980;2023-05-23T01:09:48;100471.03;;;15.16;47.85
69982;BME280;57319;56.274;43.980;2023-05-23T01:15:19;100470.16;;;15.15;47.99
69982;BME280;57319;56.274;43.980;2023-05-23T01:17:53;100469.34;;;15.13;47.97
69982;BME280;57319;56.274;43.980;2023-05-23T01:20:34;100467.59;;;15.14;48.03
69982;BME280;57319;56.274;43.980;2023-05-23T01:23:28;100471.03;;;15.16;47.96
69982;BME280;57319;56.274;43.980;2023-05-23T01:28:45;100469.28;;;15.16;48.13
69982;BME280;57319;56.274;43.980;2023-05-23T01:31:11;100471.81;;;15.19;47.75
69982;BME280;57319;56.274;43.980;2023-05-23T01:33:39;100460.53;;;15.20;47.72
69982;BME280;57319;56.274;43.980;2023-05-23T01:36:06;100467.41;;;15.23;47.74
69982;BME280;57319;56.274;43.980;2023-05-23T01:38:33;100466.50;;;15.25;47.83
69982;BME280;57319;56.274;43.980;2023-05-23T01:40:58;100468.25;;;15.25;47.80
69982;BME280;57319;56.274;43.980;2023-05-23T01:43:24;100465.63;;;15.26;47.78
69982;BME280;57319;56.274;43.980;2023-05-23T01:45:52;100465.47;;;15.33;47.69
69982;BME280;57319;56.274;43.980;2023-05-23T01:48:20;100470.69;;;15.31;47.77
69982;BME280;57319;56.274;43.980;2023-05-23T01:50:46;100477.63;;;15.31;47.79
69982;BME280;57319;56.274;43.980;2023-05-23T01:53:15;100473.25;;;15.33;47.83
69982;BME280;57319;56.274;43.980;2023-05-23T01:55:41;100470.69;;;15.31;48.11
69982;BME280;57319;56.274;43.980;2023-05-23T01:58:07;100462.03;;;15.32;48.07
69982;BME280;57319;56.274;43.980;2023-05-23T02:00:33;100470.59;;;15.36;48.17
69982;BME280;57319;56.274;43.980;2023-05-23T02:02:59;100477.47;;;15.38;47.66
69982;BME280;57319;56.274;43.980;2023-05-23T02:05:25;100480.91;;;15.40;47.96
69982;BME280;57319;56.274;43.980;2023-05-23T02:07:51;100473.13;;;15.40;47.75
69982;BME280;57319;56.274;43.980;2023-05-23T02:10:18;100468.69;;;15.44;47.82
69982;BME280;57319;56.274;43.980;2023-05-23T02:12:46;100472.19;;;15.43;47.93
69982;BME280;57319;56.274;43.980;2023-05-23T02:15:12;100468.72;;;15.42;47.96
69982;BME280;57319;56.274;43.980;2023-05-23T02:17:38;100479.09;;;15.42;47.99
69982;BME280;57319;56.274;43.980;2023-05-23T02:20:06;100478.22;;;15.43;47.87
69982;BME280;57319;56.274;43.980;2023-05-23T02:22:32;100482.53;;;15.44;48.32
69982;BME280;57319;56.274;43.980;2023-05-23T02:24:58;100481.63;;;15.47;48.23
69982;BME280;57319;56.274;43.980;2023-05-23T02:27:23;100484.97;;;15.51;48.18
69982;BME280;57319;56.274;43.980;2023-05-23T02:29:49;100491.00;;;15.53;47.99
69982;BME280;57319;56.274;43.980;2023-05-23T02:32:15;100494.38;;;15.58;48.17
69982;BME280;57319;56.274;43.980;2023-05-23T02:34:40;100502.03;;;15.63;47.87
69982;BME280;57319;56.274;43.980;2023-05-23T02:37:06;100492.41;;;15.68;47.74
69982;BME280;57319;56.274;43.980;2023-05-23T02:39:34;100490.56;;;15.73;47.89
69982;BME280;57319;56.274;43.980;2023-05-23T02:42:00;100499.97;;;15.78;48.00
69982;BME280;57319;56.274;43.980;2023-05-23T02:44:27;100499.00;;;15.84;47.96
69982;BME280;57319;56.274;43.980;2023-05-23T02:46:52;100503.28;;;15.87;47.77
69982;BME280;57319;56.274;43.980;2023-05-23T02:49:18;100508.34;;;15.91;47.78
69982;BME280;57319;56.274;43.980;2023-05-23T02:51:44;100505.66;;;15.96;47.93
69982;BME280;57319;56.274;43.980;2023-05-23T02:54:09;100498.50;;;16.06;47.66
69982;BME280;57319;56.274;43.980;2023-05-23T02:56:35;100503.31;;;16.23;47.72
69982;BME280;57319;56.274;43.980;2023-05-23T02:59:01;100499.41;;;16.41;47.45
69982;BME280;57319;56.274;43.980;2023-05-23T03:01:27;100491.19;;;16.56;47.24
69982;BME280;57319;56.274;43.980;2023-05-23T03:03:52;100493.53;;;16.67;46.08
69982;BME280;57319;56.274;43.980;2023-05-23T03:06:18;100501.94;;;16.77;46.48
69982;BME280;57319;56.274;43.980;2023-05-23T03:08:47;100493.97;;;16.83;46.52
69982;BME280;57319;56.274;43.980;2023-05-23T03:11:13;100495.66;;;16.86;46.25
69982;BME280;57319;56.274;43.980;2023-05-23T03:13:38;100499.03;;;16.88;46.07
69982;BME280;57319;56.274;43.980;2023-05-23T03:16:04;100501.63;;;16.89;46.16
69982;BME280;57319;56.274;43.980;2023-05-23T03:18:30;100501.59;;;16.91;45.93
69982;BME280;57319;56.274;43.980;2023-05-23T03:20:55;100503.25;;;16.93;46.04
69982;BME280;57319;56.274;43.980;2023-05-23T03:23:21;100498.84;;;16.97;46.23
69982;BME280;57319;56.274;43.980;2023-05-23T03:25:48;100495.41;;;16.95;46.44
69982;BME280;57319;56.274;43.980;2023-05-23T03:28:13;100495.50;;;16.92;46.87
69982;BME280;57319;56.274;43.980;2023-05-23T03:30:39;100493.78;;;16.91;47.24
69982;BME280;57319;56.274;43.980;2023-05-23T03:33:05;100498.19;;;16.89;47.36
69982;BME280;57319;56.274;43.980;2023-05-23T03:35:31;100493.84;;;16.89;47.32
69982;BME280;57319;56.274;43.980;2023-05-23T03:37:57;100503.41;;;16.89;47.42
69982;BME280;57319;56.274;43.980;2023-05-23T03:40:23;100491.22;;;16.89;47.25
69982;BME280;57319;56.274;43.980;2023-05-23T03:42:50;100491.25;;;16.88;47.68
69982;BME280;57319;56.274;43.980;2023-05-23T03:45:25;100486.09;;;16.86;48.03
69982;BME280;57319;56.274;43.980;2023-05-23T03:47:51;100489.59;;;16.85;48.28
69982;BME280;57319;56.274;43.980;2023-05-23T03:50:16;100490.50;;;16.83;48.53
69982;BME280;57319;56.274;43.980;2023-05-23T03:52:42;100491.44;;;16.80;48.67
69982;BME280;57319;56.274;43.980;2023-05-23T03:55:08;100486.28;;;16.78;48.15
69982;BME280;57319;56.274;43.980;2023-05-23T03:57:35;100491.50;;;16.78;48.25
69982;BME280;57319;56.274;43.980;2023-05-23T04:00:02;100487.16;;;16.79;48.35
69982;BME280;57319;56.274;43.980;2023-05-23T04:02:32;100489.66;;;16.82;48.47
69982;BME280;57319;56.274;43.980;2023-05-23T04:04:57;100487.84;;;16.86;48.23
69982;BME280;57319;56.274;43.980;2023-05-23T04:07:24;100493.00;;;16.87;48.74
69982;BME280;57319;56.274;43.980;2023-05-23T04:09:50;100493.78;;;16.91;49.10
69982;BME280;57319;56.274;43.980;2023-05-23T04:12:16;100496.28;;;16.95;48.99
69982;BME280;57319;56.274;43.980;2023-05-23T04:14:42;100497.94;;;16.98;48.82
69982;BME280;57319;56.274;43.980;2023-05-23T04:17:08;100496.00;;;17.05;49.46
69982;BME280;57319;56.274;43.980;2023-05-23T04:19:33;100493.25;;;17.11;49.70
69982;BME280;57319;56.274;43.980;2023-05-23T04:21:59;100491.38;;;17.16;49.05
69982;BME280;57319;56.274;43.980;2023-05-23T04:24:25;100489.47;;;17.23;49.37
69982;BME280;57319;56.274;43.980;2023-05-23T04:26:51;100490.97;;;17.30;48.92
69982;BME280;57319;56.274;43.980;2023-05-23T04:29:16;100491.72;;;17.35;48.72
69982;BME280;57319;56.274;43.980;2023-05-23T04:31:42;100490.84;;;17.35;48.49
69982;BME280;57319;56.274;43.980;2023-05-23T04:34:10;100489.81;;;17.40;48.36
69982;BME280;57319;56.274;43.980;2023-05-23T04:36:36;100494.03;;;17.44;48.51
69982;BME280;57319;56.274;43.980;2023-05-23T04:39:04;100488.66;;;17.51;48.30
69982;BME280;57319;56.274;43.980;2023-05-23T04:41:29;100486.66;;;17.59;48.37
69982;BME280;57319;56.274;43.980;2023-05-23T04:43:55;100487.25;;;17.69;48.20
69982;BME280;57319;56.274;43.980;2023-05-23T04:46:22;100490.25;;;17.83;47.95
69982;BME280;57319;56.274;43.980;2023-05-23T04:48:52;100486.41;;;17.96;47.28
69982;BME280;57319;56.274;43.980;2023-05-23T04:51:18;100478.81;;;18.17;47.38
69982;BME280;57319;56.274;43.980;2023-05-23T04:53:47;100489.28;;;18.42;46.59
69982;BME280;57319;56.274;43.980;2023-05-23T04:56:13;100474.53;;;18.67;46.24
69982;BME280;57319;56.274;43.980;2023-05-23T04:58:40;100487.69;;;18.89;45.35
69982;BME280;57319;56.274;43.980;2023-05-23T05:01:06;100479.66;;;19.19;44.85
69982;BME280;57319;56.274;43.980;2023-05-23T05:03:34;100480.59;;;19.41;43.71
69982;BME280;57319;56.274;43.980;2023-05-23T05:05:59;100471.97;;;19.61;43.17
69982;BME280;57319;56.274;43.980;2023-05-23T05:08:26;100472.13;;;19.80;42.85
69982;BME280;57319;56.274;43.980;2023-05-23T05:10:53;100469.69;;;19.98;42.43
69982;BME280;57319;56.274;43.980;2023-05-23T05:13:19;100474.50;;;20.09;42.12
69982;BME280;57319;56.274;43.980;2023-05-23T05:15:45;100469.81;;;20.17;42.06
69982;BME280;57319;56.274;43.980;2023-05-23T05:18:12;100467.72;;;20.25;42.14
69982;BME280;57319;56.274;43.980;2023-05-23T05:20:38;100477.00;;;20.32;41.92
69982;BME280;57319;56.274;43.980;2023-05-23T05:23:04;100470.53;;;20.41;41.99
69982;BME280;57319;56.274;43.980;2023-05-23T05:25:29;100464.97;;;20.49;41.50
69982;BME280;57319;56.274;43.980;2023-05-23T05:28:01;100477.59;;;20.60;41.18
69982;BME280;57319;56.274;43.980;2023-05-23T05:30:33;100475.41;;;20.71;41.26
69982;BME280;57319;56.274;43.980;2023-05-23T05:33:03;100464.59;;;20.79;40.51
69982;BME280;57319;56.274;43.980;2023-05-23T05:35:35;100472.00;;;20.90;39.82
69982;BME280;57319;56.274;43.980;2023-05-23T05:38:02;100473.97;;;21.04;40.02
69982;BME280;57319;56.274;43.980;2023-05-23T05:40:30;100463.78;;;21.16;38.57
69982;BME280;57319;56.274;43.980;2023-05-23T05:42:56;100466.69;;;21.29;38.10
69982;BME280;57319;56.274;43.980;2023-05-23T05:45:22;100462.66;;;21.41;38.12
69982;BME280;57319;56.274;43.980;2023-05-23T05:47:47;100474.47;;;21.50;38.54
69982;BME280;57319;56.274;43.980;2023-05-23T05:50:13;100461.06;;;21.58;38.21
69982;BME280;57319;56.274;43.980;2023-05-23T05:52:40;100467.91;;;21.60;37.99
69982;BME280;57319;56.274;43.980;2023-05-23T05:55:10;100461.69;;;21.63;38.20
69982;BME280;57319;56.274;43.980;2023-05-23T05:57:39;100468.56;;;21.65;38.06
69982;BME280;57319;56.274;43.980;2023-05-23T06:00:07;100463.75;;;21.56;38.60
69982;BME280;57319;56.274;43.980;2023-05-23T06:02:38;100458.66;;;21.53;38.62
69982;BME280;57319;56.274;43.980;2023-05-23T06:05:05;100469.81;;;21.57;39.01
69982;BME280;57319;56.274;43.980;2023-05-23T06:07:35;100464.78;;;21.71;38.85
69982;BME280;57319;56.274;43.980;2023-05-23T06:10:02;100459.72;;;21.85;38.89
69982;BME280;57319;56.274;43.980;2023-05-23T06:12:29;100462.63;;;21.98;38.61
69982;BME280;57319;56.274;43.980;2023-05-23T06:14:55;100463.47;;;22.16;38.36
69982;BME280;57319;56.274;43.980;2023-05-23T06:17:21;100453.28;;;22.28;38.55
69982;BME280;57319;56.274;43.980;2023-05-23T06:19:46;100460.56;;;22.40;38.25
69982;BME280;57319;56.274;43.980;2023-05-23T06:22:13;100453.78;;;22.53;37.96
69982;BME280;57319;56.274;43.980;2023-05-23T06:24:38;100455.31;;;22.58;37.80
69982;BME280;57319;56.274;43.980;2023-05-23T06:27:04;100461.00;;;22.66;37.71
69982;BME280;57319;56.274;43.980;2023-05-23T06:29:30;100462.72;;;22.67;36.94
69982;BME280;57319;56.274;43.980;2023-05-23T06:31:59;100454.38;;;22.59;37.30
69982;BME280;57319;56.274;43.980;2023-05-23T06:34:25;100451.31;;;22.50;37.64
69982;BME280;57319;56.274;43.980;2023-05-23T06:36:50;100447.59;;;22.55;38.10
69982;BME280;57319;56.274;43.980;2023-05-23T06:39:16;100450.72;;;22.61;38.17
69982;BME280;57319;56.274;43.980;2023-05-23T06:41:42;100452.03;;;22.70;38.34
69982;BME280;57319;56.274;43.980;2023-05-23T06:44:07;100450.78;;;22.77;37.84
69982;BME280;57319;56.274;43.980;2023-05-23T06:46:33;100454.94;;;22.81;37.95
69982;BME280;57319;56.274;43.980;2023-05-23T06:48:59;100446.06;;;22.84;37.53
69982;BME280;57319;56.274;43.980;2023-05-23T06:51:25;100445.38;;;22.80;37.72
69982;BME280;57319;56.274;43.980;2023-05-23T06:53:50;100441.75;;;22.83;38.08
69982;BME280;57319;56.274;43.980;2023-05-23T06:56:16;100451.22;;;22.85;37.88
69982;BME280;57319;56.274;43.980;2023-05-23T06:58:42;100440.47;;;22.90;38.07
69982;BME280;57319;56.274;43.980;2023-05-23T07:01:07;100437.78;;;22.92;37.60
69982;BME280;57319;56.274;43.980;2023-05-23T07:03:35;100443.63;;;22.97;37.73
69982;BME280;57319;56.274;43.980;2023-05-23T07:06:03;100445.84;;;23.04;38.19
69982;BME280;57319;56.274;43.980;2023-05-23T07:08:28;100444.56;;;23.12;38.18
69982;BME280;57319;56.274;43.980;2023-05-23T07:10:55;100447.66;;;23.20;38.02
69982;BME280;57319;56.274;43.980;2023-05-23T07:13:20;100439.47;;;23.26;38.06
69982;BME280;57319;56.274;43.980;2023-05-23T07:15:46;100445.22;;;23.33;37.76
69982;BME280;57319;56.274;43.980;2023-05-23T07:18:12;100439.63;;;23.39;37.17
69982;BME280;57319;56.274;43.980;2023-05-23T07:20:38;100442.50;;;23.50;37.02
69982;BME280;57319;56.274;43.980;2023-05-23T07:23:03;100442.16;;;23.57;35.97
69982;BME280;57319;56.274;43.980;2023-05-23T07:25:29;100440.78;;;23.65;36.14
69982;BME280;57319;56.274;43.980;2023-05-23T07:27:54;100446.47;;;23.74;35.21
69982;BME280;57319;56.274;43.980;2023-05-23T07:30:20;100441.78;;;23.79;34.73
69982;BME280;57319;56.274;43.980;2023-05-23T07:32:47;100448.47;;;23.84;33.81
69982;BME280;57319;56.274;43.980;2023-05-23T07:35:14;100433.25;;;23.91;34.34
69982;BME280;57319;56.274;43.980;2023-05-23T07:37:41;100440.22;;;24.07;34.77
69982;BME280;57319;56.274;43.980;2023-05-23T07:40:07;100440.44;;;24.18;35.31
69982;BME280;57319;56.274;43.980;2023-05-23T07:42:33;100441.78;;;24.25;35.28
69982;BME280;57319;56.274;43.980;2023-05-23T07:44:59;100438.59;;;24.34;35.63
69982;BME280;57319;56.274;43.980;2023-05-23T07:47:26;100442.47;;;24.43;35.57
69982;BME280;57319;56.274;43.980;2023-05-23T07:49:52;100445.06;;;24.29;34.06
69982;BME280;57319;56.274;43.980;2023-05-23T07:52:18;100439.06;;;24.27;34.97
69982;BME280;57319;56.274;43.980;2023-05-23T07:54:44;100438.00;;;24.15;34.46
69982;BME280;57319;56.274;43.980;2023-05-23T07:57:10;100434.16;;;24.20;34.74
69982;BME280;57319;56.274;43.980;2023-05-23T07:59:35;100431.91;;;24.29;34.83
69982;BME280;57319;56.274;43.980;2023-05-23T08:02:01;100434.38;;;24.32;35.06
69982;BME280;57319;56.274;43.980;2023-05-23T08:04:28;100428.06;;;24.34;34.04
69982;BME280;57319;56.274;43.980;2023-05-23T08:06:54;100422.56;;;24.39;34.08
69982;BME280;57319;56.274;43.980;2023-05-23T08:09:21;100424.81;;;24.45;34.36
69982;BME280;57319;56.274;43.980;2023-05-23T08:11:47;100417.28;;;24.53;34.61
69982;BME280;57319;56.274;43.980;2023-05-23T08:14:13;100418.06;;;24.55;33.10
69982;BME280;57319;56.274;43.980;2023-05-23T08:16:39;100419.66;;;24.58;32.73
69982;BME280;57319;56.274;43.980;2023-05-23T08:19:05;100413.44;;;24.59;32.51
69982;BME280;57319;56.274;43.980;2023-05-23T08:21:31;100417.03;;;24.58;31.86
69982;BME280;57319;56.274;43.980;2023-05-23T08:23:57;100411.00;;;24.56;31.56
69982;BME280;57319;56.274;43.980;2023-05-23T08:26:23;100405.31;;;24.64;31.97
69982;BME280;57319;56.274;43.980;2023-05-23T08:28:49;100395.53;;;24.80;32.15
69982;BME280;57319;56.274;43.980;2023-05-23T08:31:15;100397.84;;;24.99;31.63
69982;BME280;57319;56.274;43.980;2023-05-23T08:33:41;100397.72;;;25.15;29.21
69982;BME280;57319;56.274;43.980;2023-05-23T08:36:09;100389.22;;;25.24;27.91
69982;BME280;57319;56.274;43.980;2023-05-23T08:38:34;100397.88;;;25.41;27.17
69982;BME280;57319;56.274;43.980;2023-05-23T08:41:00;100388.56;;;25.35;27.60
69982;BME280;57319;56.274;43.980;2023-05-23T08:43:27;100383.97;;;25.39;27.52
69982;BME280;57319;56.274;43.980;2023-05-23T08:45:53;100386.75;;;25.50;28.11
69982;BME280;57319;56.274;43.980;2023-05-23T08:48:20;100383.69;;;25.56;27.95
69982;BME280;57319;56.274;43.980;2023-05-23T08:50:47;100380.00;;;25.59;27.88
69982;BME280;57319;56.274;43.980;2023-05-23T08:53:17;100384.03;;;25.65;28.47
69982;BME280;57319;56.274;43.980;2023-05-23T08:55:48;100374.63;;;25.61;28.31
69982;BME280;57319;56.274;43.980;2023-05-23T08:58:17;100368.53;;;25.60;28.88
69982;BME280;57319;56.274;43.980;2023-05-23T09:00:47;100370.63;;;25.55;27.20
69982;BME280;57319;56.274;43.980;2023-05-23T09:03:13;100361.44;;;25.61;27.02
69982;BME280;57319;56.274;43.980;2023-05-23T09:05:39;100365.19;;;25.71;27.27
69982;BME280;57319;56.274;43.980;2023-05-23T09:08:06;100364.47;;;25.82;26.46
69982;BME280;57319;56.274;43.980;2023-05-23T09:10:31;100364.16;;;25.86;25.65
69982;BME280;57319;56.274;43.980;2023-05-23T09:12:57;100369.22;;;25.89;25.39
69982;BME280;57319;56.274;43.980;2023-05-23T09:15:23;100365.31;;;25.95;25.88
69982;BME280;57319;56.274;43.980;2023-05-23T09:17:50;100365.84;;;25.87;25.66
69982;BME280;57319;56.274;43.980;2023-05-23T09:20:16;100366.34;;;25.80;24.94
69982;BME280;57319;56.274;43.980;2023-05-23T09:22:46;100367.41;;;25.77;24.79
69982;BME280;57319;56.274;43.980;2023-05-23T09:25:13;100362.88;;;25.79;24.78
69982;BME280;57319;56.274;43.980;2023-05-23T09:27:39;100359.31;;;25.80;24.73
69982;BME280;57319;56.274;43.980;2023-05-23T09:30:09;100364.47;;;25.82;24.93
69982;BME280;57319;56.274;43.980;2023-05-23T09:32:36;100351.78;;;25.87;25.30
69982;BME280;57319;56.274;43.980;2023-05-23T09:35:04;100352.03;;;25.97;25.16
69982;BME280;57319;56.274;43.980;2023-05-23T09:37:34;100348.00;;;25.91;23.96
69982;BME280;57319;56.274;43.980;2023-05-23T09:40:10;100344.94;;;25.71;23.85
69982;BME280;57319;56.274;43.980;2023-05-23T09:42:44;100350.53;;;25.67;24.16
69982;BME280;57319;56.274;43.980;2023-05-23T09:45:14;100344.41;;;25.79;24.92
69982;BME280;57319;56.274;43.980;2023-05-23T09:47:51;100347.34;;;25.74;22.82
69982;BME280;57319;56.274;43.980;2023-05-23T09:50:17;100357.28;;;25.71;23.92
69982;BME280;57319;56.274;43.980;2023-05-23T09:52:43;100344.41;;;25.79;23.99
69982;BME280;57319;56.274;43.980;2023-05-23T09:55:09;100349.91;;;25.89;23.85
69982;BME280;57319;56.274;43.980;2023-05-23T09:57:37;100347.94;;;25.93;23.98
69982;BME280;57319;56.274;43.980;2023-05-23T10:00:05;100335.81;;;26.03;24.01
69982;BME280;57319;56.274;43.980;2023-05-23T10:07:57;100335.59;;;26.32;24.51
69982;BME280;57319;56.274;43.980;2023-05-23T10:10:25;100337.06;;;26.36;24.87
69982;BME280;57319;56.274;43.980;2023-05-23T10:12:55;100349.09;;;26.14;24.46
69982;BME280;57319;56.274;43.980;2023-05-23T10:15:25;100344.44;;;25.92;25.12
69982;BME280;57319;56.274;43.980;2023-05-23T10:18:11;100343.22;;;25.70;25.92
69982;BME280;57319;56.274;43.980;2023-05-23T10:20:42;100337.13;;;25.70;26.12
69982;BME280;57319;56.274;43.980;2023-05-23T10:23:11;100339.66;;;25.71;26.45
69982;BME280;57319;56.274;43.980;2023-05-23T10:25:39;100335.31;;;25.70;26.34
69982;BME280;57319;56.274;43.980;2023-05-23T10:28:07;100332.41;;;25.88;26.29
69982;BME280;57319;56.274;43.980;2023-05-23T10:30:33;100335.13;;;25.99;26.52
69982;BME280;57319;56.274;43.980;2023-05-23T10:32:59;100334.16;;;26.15;26.28
69982;BME280;57319;56.274;43.980;2023-05-23T10:35:37;100324.41;;;26.28;25.11
69982;BME280;57319;56.274;43.980;2023-05-23T10:38:41;100330.56;;;26.29;25.06
69982;BME280;57319;56.274;43.980;2023-05-23T10:41:35;100329.78;;;26.27;24.72
69982;BME280;57319;56.274;43.980;2023-05-23T10:46:52;100322.41;;;26.32;23.23
69982;BME280;57319;56.274;43.980;2023-05-23T10:49:18;100330.13;;;26.22;23.13
69982;BME280;57319;56.274;43.980;2023-05-23T10:51:49;100322.22;;;26.22;22.28
69982;BME280;57319;56.274;43.980;2023-05-23T10:54:17;100325.50;;;26.26;22.79
69982;BME280;57319;56.274;43.980;2023-05-23T10:56:44;100319.69;;;26.20;23.76
69982;BME280;57319;56.274;43.980;2023-05-23T10:59:19;100316.84;;;26.11;21.98
69982;BME280;57319;56.274;43.980;2023-05-23T11:01:46;100327.81;;;26.30;22.31
69982;BME280;57319;56.274;43.980;2023-05-23T11:04:14;100311.88;;;26.69;21.69
69982;BME280;57319;56.274;43.980;2023-05-23T11:06:43;100314.59;;;26.93;21.61
69982;BME280;57319;56.274;43.980;2023-05-23T11:09:14;100303.84;;;27.32;21.10
69982;BME280;57319;56.274;43.980;2023-05-23T11:11:50;100301.63;;;27.74;20.66
69982;BME280;57319;56.274;43.980;2023-05-23T11:14:50;100315.56;;;27.87;20.14
69982;BME280;57319;56.274;43.980;2023-05-23T11:17:29;100318.75;;;28.04;20.26
69982;BME280;57319;56.274;43.980;2023-05-23T11:20:05;100310.81;;;27.68;20.30
69982;BME280;57319;56.274;43.980;2023-05-23T11:22:35;100315.50;;;27.53;20.63
69982;BME280;57319;56.274;43.980;2023-05-23T11:25:06;100313.84;;;27.75;20.66
69982;BME280;57319;56.274;43.980;2023-05-23T11:27:36;100314.94;;;28.19;20.32
69982;BME280;57319;56.274;43.980;2023-05-23T11:32:40;100305.44;;;29.81;18.16
69982;BME280;57319;56.274;43.980;2023-05-23T11:35:08;100296.78;;;30.00;18.52
69982;BME280;57319;56.274;43.980;2023-05-23T11:37:37;100292.38;;;30.20;18.71
69982;BME280;57319;56.274;43.980;2023-05-23T11:40:30;100291.94;;;30.45;18.54
69982;BME280;57319;56.274;43.980;2023-05-23T11:42:57;100298.22;;;29.61;19.05
69982;BME280;57319;56.274;43.980;2023-05-23T11:45:24;100288.09;;;29.76;19.25
69982;BME280;57319;56.274;43.980;2023-05-23T11:47:51;100293.75;;;29.83;18.75
69982;BME280;57319;56.274;43.980;2023-05-23T11:50:17;100294.50;;;29.32;19.41
69982;BME280;57319;56.274;43.980;2023-05-23T11:52:45;100297.28;;;28.98;19.55
69982;BME280;57319;56.274;43.980;2023-05-23T11:55:19;100286.75;;;28.52;20.30
69982;BME280;57319;56.274;43.980;2023-05-23T11:57:47;100296.25;;;28.09;20.94
69982;BME280;57319;56.274;43.980;2023-05-23T12:00:14;100287.13;;;27.55;21.44
69982;BME280;57319;56.274;43.980;2023-05-23T12:02:41;100287.94;;;27.45;21.64
69982;BME280;57319;56.274;43.980;2023-05-23T12:05:12;100280.00;;;27.45;21.87
69982;BME280;57319;56.274;43.980;2023-05-23T12:07:42;100284.09;;;27.37;21.71
69982;BME280;57319;56.274;43.980;2023-05-23T12:10:13;100270.69;;;27.28;21.97
69982;BME280;57319;56.274;43.980;2023-05-23T12:12:40;100281.38;;;27.26;22.44
69982;BME280;57319;56.274;43.980;2023-05-23T12:15:10;100279.84;;;27.11;22.09
69982;BME280;57319;56.274;43.980;2023-05-23T12:17:37;100277.88;;;26.77;22.68
69982;BME280;57319;56.274;43.980;2023-05-23T12:20:05;100268.13;;;26.53;22.68
69982;BME280;57319;56.274;43.980;2023-05-23T12:22:31;100270.31;;;26.59;23.27
69982;BME280;57319;56.274;43.980;2023-05-23T12:24:57;100269.38;;;26.61;23.51
69982;BME280;57319;56.274;43.980;2023-05-23T12:27:32;100268.00;;;26.55;23.26
69982;BME280;57319;56.274;43.980;2023-05-23T12:30:15;100263.66;;;26.67;23.35
69982;BME280;57319;56.274;43.980;2023-05-23T12:32:43;100264.47;;;26.80;23.64
69982;BME280;57319;56.274;43.980;2023-05-23T12:35:11;100255.19;;;26.99;23.53
69982;BME280;57319;56.274;43.980;2023-05-23T12:37:47;100246.38;;;27.11;23.64
69982;BME280;57319;56.274;43.980;2023-05-23T12:40:17;100248.22;;;27.22;23.64
69982;BME280;57319;56.274;43.980;2023-05-23T12:42:56;100243.13;;;27.19;23.22
69982;BME280;57319;56.274;43.980;2023-05-23T12:45:25;100243.88;;;27.21;23.50
69982;BME280;57319;56.274;43.980;2023-05-23T12:47:55;100247.50;;;27.31;23.66
69982;BME280;57319;56.274;43.980;2023-05-23T12:50:20;100239.38;;;27.34;23.65
69982;BME280;57319;56.274;43.980;2023-05-23T12:52:46;100245.66;;;27.45;23.50
69982;BME280;57319;56.274;43.980;2023-05-23T12:55:12;100237.97;;;27.53;23.26
69982;BME280;57319;56.274;43.980;2023-05-23T12:57:37;100237.97;;;27.53;23.20
69982;BME280;57319;56.274;43.980;2023-05-23T13:00:04;100233.81;;;27.62;23.72